Time;durP1;ratioP1;P1;durP2;ratioP2;P2;SDS_P1;SDS_P2;PMS_P1;PMS_P2;Temp;Humidity;BMP_temperature;BMP_pressure;BME280_temperature;BME280_humidity;BME280_pressure;Samples;Min_cycle;Max_cycle;Signal;HPM_P1;HPM_P2
2023/12/10 00:00:19;;;;;;;45.60;17.70;;;;;;;-2.72;100.00;101206.64;110209;1234;61041;-75
2023/12/10 00:03:08;;;;;;;46.20;18.10;;;;;;;-2.80;100.00;101204.50;110252;1237;75553;-77
2023/12/10 00:05:37;;;;;;;45.30;17.80;;;;;;;-2.90;100.00;101205.45;110293;1234;72023;-75
2023/12/10 00:08:07;;;;;;;47.10;18.30;;;;;;;-2.94;100.00;101201.89;110120;1235;68842;-75
2023/12/10 00:10:40;;;;;;;47.20;19.40;;;;;;;-2.92;100.00;101199.83;110245;1234;73072;-78
2023/12/10 00:13:24;;;;;;;48.10;17.40;;;;;;;-2.98;100.00;101199.72;110248;1234;60963;-77
2023/12/10 00:15:54;;;;;;;50.20;19.50;;;;;;;-2.81;100.00;101198.88;110125;1237;60406;-78
2023/12/10 00:18:24;;;;;;;46.40;18.20;;;;;;;-2.82;100.00;101198.03;110339;1234;73552;-78
2023/12/10 00:20:53;;;;;;;52.60;20.20;;;;;;;-2.76;100.00;101194.73;110349;1234;72274;-76
2023/12/10 00:23:22;;;;;;;48.80;19.20;;;;;;;-2.91;100.00;101198.46;110259;1234;68424;-78
2023/12/10 00:25:51;;;;;;;51.60;19.60;;;;;;;-2.93;100.00;101190.12;110350;1234;72105;-77
2023/12/10 00:28:20;;;;;;;51.00;19.30;;;;;;;-2.92;100.00;101198.81;110258;1238;59485;-77
2023/12/10 00:30:49;;;;;;;49.30;18.80;;;;;;;-3.00;100.00;101194.95;110301;1234;61034;-78
2023/12/10 00:33:19;;;;;;;49.40;18.60;;;;;;;-2.87;100.00;101191.44;110407;1234;73150;-77
2023/12/10 00:35:49;;;;;;;50.40;19.60;;;;;;;-2.87;100.00;101198.08;110448;1235;69768;-78
2023/12/10 00:38:17;;;;;;;50.50;19.30;;;;;;;-2.84;100.00;101198.58;110345;1234;70337;-77
2023/12/10 00:40:52;;;;;;;54.60;19.70;;;;;;;-2.82;100.00;101196.33;110434;1235;73353;-78
2023/12/10 00:43:21;;;;;;;49.10;17.20;;;;;;;-2.73;100.00;101194.20;110326;1237;61830;-77
2023/12/10 00:45:52;;;;;;;46.80;18.30;;;;;;;-2.80;100.00;101190.68;110462;1234;59730;-77
2023/12/10 00:48:21;;;;;;;48.60;19.50;;;;;;;-2.75;100.00;101193.88;110445;1234;73490;-78
2023/12/10 00:50:50;;;;;;;50.40;18.50;;;;;;;-2.70;100.00;101195.36;110440;1234;71319;-79
2023/12/10 00:53:20;;;;;;;49.50;18.80;;;;;;;-2.62;100.00;101189.66;110431;1234;70826;-79
2023/12/10 00:55:50;;;;;;;39.40;15.60;;;;;;;-2.73;100.00;101187.73;110459;1234;72433;-81
2023/12/10 00:58:19;;;;;;;37.80;16.30;;;;;;;-2.69;100.00;101189.55;110319;1235;60247;-77
2023/12/10 01:00:48;;;;;;;38.30;15.30;;;;;;;-2.68;100.00;101191.58;110428;1235;59386;-77
2023/12/10 01:03:17;;;;;;;36.60;15.90;;;;;;;-2.60;100.00;101185.72;110456;1234;73676;-78
2023/12/10 01:05:49;;;;;;;39.80;15.50;;;;;;;-2.71;100.00;101191.95;110330;1234;69768;-77
2023/12/10 01:08:18;;;;;;;44.30;16.90;;;;;;;-2.71;100.00;101191.96;110419;1233;70401;-77
2023/12/10 01:10:48;;;;;;;41.90;15.80;;;;;;;-2.80;100.00;101192.05;110437;1233;71239;-77
2023/12/10 01:13:16;;;;;;;33.60;13.70;;;;;;;-2.69;100.00;101188.70;110301;1235;61348;-78
2023/12/10 01:15:45;;;;;;;36.30;16.00;;;;;;;-2.80;100.00;101190.86;110462;1234;59788;-79
2023/12/10 01:18:15;;;;;;;33.00;13.60;;;;;;;-2.80;100.00;101181.48;110372;1233;72282;-78
2023/12/10 01:20:44;;;;;;;38.70;14.00;;;;;;;-2.69;100.00;101186.31;110212;1233;71367;-77
2023/12/10 01:23:14;;;;;;;26.60;11.30;;;;;;;-2.70;100.00;101183.09;110306;1233;69865;-78
2023/12/10 01:25:43;;;;;;;22.50;10.00;;;;;;;-2.73;100.00;101178.85;110281;1234;71477;-78
2023/12/10 01:28:20;;;;;;;32.20;12.60;;;;;;;-2.77;100.00;101176.68;110248;1234;62698;-76
2023/12/10 01:30:49;;;;;;;34.80;14.40;;;;;;;-2.87;100.00;101169.45;109958;1234;60689;-76
2023/12/10 01:33:19;;;;;;;28.80;12.50;;;;;;;-2.91;100.00;101161.30;110329;1233;73811;-77
2023/12/10 01:35:48;;;;;;;34.80;13.70;;;;;;;-3.00;100.00;101158.33;110307;1234;72840;-76
2023/12/10 01:38:17;;;;;;;34.30;14.10;;;;;;;-3.09;100.00;101157.39;110311;1234;68773;-76
2023/12/10 01:40:52;;;;;;;34.90;14.70;;;;;;;-3.15;100.00;101154.38;110203;1233;73313;-76
2023/12/10 01:43:28;;;;;;;33.50;13.40;;;;;;;-3.15;100.00;101151.30;110207;1236;63046;-77
2023/12/10 01:45:57;;;;;;;32.70;13.90;;;;;;;-3.26;100.00;101150.71;110303;1235;59227;-76
2023/12/10 01:48:28;;;;;;;34.60;13.30;;;;;;;-3.14;100.00;101155.73;110359;1235;74137;-76
2023/12/10 01:50:58;;;;;;;31.20;12.40;;;;;;;-2.98;100.00;101159.83;110357;1234;71600;-76
2023/12/10 01:53:27;;;;;;;30.30;11.90;;;;;;;-2.94;100.00;101158.27;110141;1234;70980;-76
2023/12/10 01:55:56;;;;;;;27.50;11.00;;;;;;;-2.89;100.00;101160.27;110168;1234;74006;-76
2023/12/10 01:58:27;;;;;;;31.60;14.20;;;;;;;-2.93;100.00;101161.33;110075;1238;60658;-76
2023/12/10 02:00:56;;;;;;;30.40;12.90;;;;;;;-2.97;100.00;101164.08;109969;1234;60219;-76
2023/12/10 02:03:25;;;;;;;31.50;12.50;;;;;;;-3.00;100.00;101165.65;110083;1234;72918;-76
2023/12/10 02:05:54;;;;;;;27.70;11.50;;;;;;;-2.99;100.00;101164.44;110196;1234;69575;-76
2023/12/10 02:08:27;;;;;;;33.30;13.20;;;;;;;-2.99;100.00;101158.14;110070;1234;68832;-75
2023/12/10 02:10:57;;;;;;;23.40;10.30;;;;;;;-3.08;100.00;101156.86;110136;1234;70935;-76
2023/12/10 02:13:26;;;;;;;32.80;14.40;;;;;;;-3.08;100.00;101154.65;110028;1236;61916;-76
2023/12/10 02:15:55;;;;;;;33.80;14.70;;;;;;;-3.11;100.00;101152.80;110007;1234;60815;-77
2023/12/10 02:18:24;;;;;;;34.30;14.50;;;;;;;-3.03;100.00;101154.42;110094;1235;72443;-76
2023/12/10 02:20:54;;;;;;;38.00;16.00;;;;;;;-3.07;100.00;101150.38;110167;1237;70943;-76
2023/12/10 02:23:38;;;;;;;33.40;13.90;;;;;;;-3.16;100.00;101140.58;110047;1234;71284;-76
2023/12/10 02:26:06;;;;;;;38.70;15.60;;;;;;;-3.23;100.00;101131.95;110161;1234;74112;-77
2023/12/10 02:28:35;;;;;;;35.50;14.30;;;;;;;-3.37;100.00;101132.41;110105;1234;59946;-75
2023/12/10 02:31:05;;;;;;;32.50;15.30;;;;;;;-3.35;100.00;101131.55;110162;1234;59395;-76
2023/12/10 02:33:34;;;;;;;28.90;13.90;;;;;;;-3.50;100.00;101125.19;110211;1234;74280;-76
2023/12/10 02:36:03;;;;;;;26.10;12.30;;;;;;;-3.48;100.00;101125.35;110096;1235;72736;-76
2023/12/10 02:38:32;;;;;;;26.30;11.30;;;;;;;-3.39;100.00;101124.92;110075;1234;68338;-76
2023/12/10 02:41:01;;;;;;;21.80;9.40;;;;;;;-3.43;100.00;101122.92;109946;1238;71766;-76
2023/12/10 02:43:30;;;;;;;25.70;11.60;;;;;;;-3.41;100.00;101122.05;110103;1237;61079;-76
2023/12/10 02:45:59;;;;;;;27.20;11.70;;;;;;;-3.37;100.00;101109.59;110277;1234;60716;-75
2023/12/10 02:48:28;;;;;;;23.80;9.90;;;;;;;-3.49;100.00;101104.59;110328;1234;74806;-75
2023/12/10 02:50:57;;;;;;;27.90;12.60;;;;;;;-3.44;100.00;101109.65;110082;1238;69922;-76
2023/12/10 02:53:26;;;;;;;28.40;12.30;;;;;;;-3.46;100.00;101109.84;110253;1238;68711;-75
2023/12/10 02:55:57;;;;;;;31.80;13.40;;;;;;;-3.38;100.00;101106.52;110190;1235;73702;-75
2023/12/10 02:58:26;;;;;;;25.70;11.90;;;;;;;-3.39;100.00;101108.77;110159;1238;60793;-76
2023/12/10 03:00:55;;;;;;;26.50;11.10;;;;;;;-3.34;100.00;101109.56;110314;1234;61706;-75
2023/12/10 03:03:24;;;;;;;26.40;12.40;;;;;;;-3.35;100.00;101112.46;110140;1234;74170;-76
2023/12/10 03:05:53;;;;;;;27.00;12.80;;;;;;;-3.39;100.00;101114.04;110363;1237;69685;-76
2023/12/10 03:08:22;;;;;;;29.30;13.00;;;;;;;-3.44;100.00;101107.09;110382;1235;67977;-77
2023/12/10 03:10:51;;;;;;;28.70;12.60;;;;;;;-3.35;100.00;101106.16;110395;1234;74231;-76
2023/12/10 03:13:19;;;;;;;26.80;11.80;;;;;;;-3.30;100.00;101106.13;110344;1236;62225;-77
2023/12/10 03:15:48;;;;;;;28.30;11.90;;;;;;;-3.35;100.00;101099.19;110285;1238;59129;-75
2023/12/10 03:18:17;;;;;;;22.40;11.10;;;;;;;-3.33;100.00;101098.66;110279;1237;71893;-78
2023/12/10 03:20:46;;;;;;;18.20;8.00;;;;;;;-3.45;100.00;101102.84;110329;1235;70125;-77
2023/12/10 03:23:17;;;;;;;19.90;9.40;;;;;;;-3.41;100.00;101109.12;110363;1237;69164;-77
2023/12/10 03:25:46;;;;;;;19.20;8.60;;;;;;;-3.37;100.00;101112.83;110283;1238;70969;-76
2023/12/10 03:28:15;;;;;;;19.40;9.20;;;;;;;-3.31;100.00;101113.61;110251;1235;61891;-76
2023/12/10 03:30:43;;;;;;;19.80;8.80;;;;;;;-3.23;100.00;101117.13;110366;1234;60010;-76
2023/12/10 03:33:12;;;;;;;20.80;10.90;;;;;;;-3.23;100.00;101112.87;110332;1236;72678;-76
2023/12/10 03:35:41;;;;;;;20.70;9.10;;;;;;;-3.33;100.00;101107.86;110358;1235;68540;-75
2023/12/10 03:38:10;;;;;;;18.30;8.60;;;;;;;-3.27;100.00;101114.78;110379;1236;68401;-78
2023/12/10 03:40:39;;;;;;;18.70;8.80;;;;;;;-3.25;100.00;101116.30;110357;1234;73256;-76
2023/12/10 03:43:07;;;;;;;20.50;8.00;;;;;;;-3.22;100.00;101118.81;110352;1237;61798;-76
2023/12/10 03:45:36;;;;;;;17.00;8.30;;;;;;;-3.24;100.00;101117.31;110286;1238;59152;-75
2023/12/10 03:48:05;;;;;;;21.60;9.60;;;;;;;-3.42;100.00;101119.67;110385;1236;72454;-75
2023/12/10 03:50:34;;;;;;;19.10;8.70;;;;;;;-3.43;100.00;101120.04;110370;1237;69621;-75
2023/12/10 03:53:03;;;;;;;19.30;8.90;;;;;;;-3.30;100.00;101120.59;110350;1235;68474;-75
2023/12/10 03:55:32;;;;;;;16.80;7.80;;;;;;;-3.19;100.00;101116.59;110258;1235;71964;-75
2023/12/10 03:58:01;;;;;;;15.80;8.00;;;;;;;-3.15;100.00;101116.03;110236;1237;62272;-75
2023/12/10 04:00:30;;;;;;;17.10;8.60;;;;;;;-3.23;100.00;101110.99;110186;1236;61522;-75
2023/12/10 04:02:58;;;;;;;17.10;7.30;;;;;;;-3.10;100.00;101113.77;110087;1234;74922;-75
2023/12/10 04:05:27;;;;;;;19.50;8.70;;;;;;;-3.11;100.00;101114.13;110213;1234;70791;-76
2023/12/10 04:07:56;;;;;;;16.40;7.80;;;;;;;-3.17;100.00;101118.95;110008;1233;68199;-76
2023/12/10 04:10:25;;;;;;;16.70;8.70;;;;;;;-3.10;100.00;101121.95;110290;1235;71651;-75
2023/12/10 04:12:54;;;;;;;20.30;7.60;;;;;;;-3.11;100.00;101122.98;110178;1235;60317;-76
2023/12/10 04:15:23;;;;;;;21.80;9.40;;;;;;;-3.10;100.00;101118.54;110296;1233;60009;-76
2023/12/10 04:17:52;;;;;;;20.50;9.00;;;;;;;-3.27;100.00;101117.34;110420;1236;73661;-77
2023/12/10 04:20:21;;;;;;;24.50;10.10;;;;;;;-3.21;100.00;101121.72;110401;1235;70042;-76
2023/12/10 04:22:50;;;;;;;24.60;10.40;;;;;;;-3.17;100.00;101119.63;110447;1235;68261;-75
2023/12/10 04:25:19;;;;;;;23.60;10.60;;;;;;;-3.27;100.00;101116.64;110433;1235;73809;-77
2023/12/10 04:27:47;;;;;;;22.00;9.80;;;;;;;-3.36;100.00;101114.17;110414;1235;61486;-77
2023/12/10 04:30:19;;;;;;;25.80;11.00;;;;;;;-3.24;100.00;101112.36;110157;1237;60799;-77
2023/12/10 04:32:48;;;;;;;22.90;10.20;;;;;;;-3.16;100.00;101113.30;110307;1235;72286;-77
2023/12/10 04:35:17;;;;;;;22.70;10.10;;;;;;;-3.14;100.00;101109.20;110180;1237;70041;-76
2023/12/10 04:37:46;;;;;;;22.40;9.90;;;;;;;-3.03;100.00;101105.52;110067;1238;68609;-76
2023/12/10 04:40:15;;;;;;;20.90;9.20;;;;;;;-3.01;100.00;101104.13;110158;1237;70859;-77
2023/12/10 04:42:44;;;;;;;22.50;9.70;;;;;;;-3.02;100.00;101105.51;110172;1237;60233;-76
2023/12/10 04:45:13;;;;;;;20.40;9.30;;;;;;;-3.26;100.00;101110.17;110157;1234;59674;-76
2023/12/10 04:47:42;;;;;;;21.90;10.10;;;;;;;-3.29;100.00;101112.06;110190;1235;72935;-77
2023/12/10 04:50:11;;;;;;;22.40;10.30;;;;;;;-3.41;100.00;101116.27;110219;1237;71347;-76
2023/12/10 04:52:40;;;;;;;19.80;9.20;;;;;;;-3.31;100.00;101118.56;110195;1238;68995;-77
2023/12/10 04:55:09;;;;;;;20.90;9.60;;;;;;;-3.20;100.00;101122.89;110323;1237;70954;-76
2023/12/10 04:57:38;;;;;;;21.60;9.40;;;;;;;-3.19;100.00;101120.67;110384;1235;60367;-77
2023/12/10 05:00:08;;;;;;;22.60;10.70;;;;;;;-3.16;100.00;101117.23;110402;1234;60232;-77
2023/12/10 05:02:37;;;;;;;22.70;9.30;;;;;;;-3.16;100.00;101120.13;110396;1235;72085;-77
2023/12/10 05:05:08;;;;;;;22.70;9.90;;;;;;;-3.14;100.00;101122.49;110407;1235;69470;-77
2023/12/10 05:07:37;;;;;;;18.60;8.80;;;;;;;-3.03;100.00;101119.66;110431;1236;68467;-78
2023/12/10 05:10:08;;;;;;;19.80;9.30;;;;;;;-3.13;100.00;101120.29;110296;1235;72008;-76
2023/12/10 05:12:37;;;;;;;16.90;8.60;;;;;;;-3.22;100.00;101120.70;110073;1238;60614;-75
2023/12/10 05:15:07;;;;;;;19.40;8.50;;;;;;;-3.12;100.00;101117.20;110255;1235;58694;-76
2023/12/10 05:17:46;;;;;;;16.40;8.10;;;;;;;-3.18;100.00;101122.70;110198;1235;72329;-76
2023/12/10 05:20:15;;;;;;;14.10;7.30;;;;;;;-3.33;100.00;101121.83;110108;1234;71522;-77
2023/12/10 05:22:44;;;;;;;13.10;6.60;;;;;;;-3.22;100.00;101114.57;110241;1234;70066;-77
2023/12/10 05:25:13;;;;;;;16.90;6.80;;;;;;;-3.11;100.00;101117.70;110226;1234;74041;-77
2023/12/10 05:27:41;;;;;;;16.10;6.80;;;;;;;-3.19;100.00;101120.15;110103;1236;62786;-77
2023/12/10 05:30:13;;;;;;;16.40;7.00;;;;;;;-3.11;100.00;101122.48;110243;1236;59881;-76
2023/12/10 05:32:42;;;;;;;11.30;6.30;;;;;;;-3.18;100.00;101120.66;110264;1236;74190;-76
2023/12/10 05:35:11;;;;;;;16.10;7.50;;;;;;;-3.40;100.00;101123.58;110260;1235;70756;-77
2023/12/10 05:37:41;;;;;;;12.40;7.00;;;;;;;-3.31;100.00;101127.42;110252;1235;68446;-77
2023/12/10 05:40:11;;;;;;;17.50;7.90;;;;;;;-3.20;100.00;101126.65;110166;1235;72418;-77
2023/12/10 05:42:40;;;;;;;15.90;6.90;;;;;;;-3.32;100.00;101127.42;109950;1238;60304;-77
2023/12/10 05:45:09;;;;;;;15.20;7.40;;;;;;;-3.22;100.00;101127.34;110340;1234;58269;-77
2023/12/10 05:47:38;;;;;;;14.40;8.00;;;;;;;-3.14;100.00;101131.70;110333;1235;72188;-76
2023/12/10 05:50:08;;;;;;;12.30;7.30;;;;;;;-3.11;100.00;101129.45;110303;1235;70129;-77
2023/12/10 05:52:37;;;;;;;14.60;6.50;;;;;;;-3.12;100.00;101124.02;110385;1234;70493;-76
2023/12/10 05:55:06;;;;;;;12.10;6.10;;;;;;;-3.14;100.00;101120.79;110433;1233;74399;-77
2023/12/10 05:57:35;;;;;;;14.00;7.10;;;;;;;-3.19;100.00;101125.11;110390;1235;60169;-76
2023/12/10 06:00:06;;;;;;;17.10;7.60;;;;;;;-3.17;100.00;101123.88;110446;1234;58880;-78
2023/12/10 06:02:35;;;;;;;14.40;6.30;;;;;;;-3.06;100.00;101114.92;110375;1233;74356;-77
2023/12/10 06:05:04;;;;;;;12.50;6.80;;;;;;;-3.23;100.00;101112.54;110479;1234;72685;-77
2023/12/10 06:07:34;;;;;;;12.90;7.00;;;;;;;-3.29;100.00;101106.77;110461;1234;70229;-77
2023/12/10 06:10:04;;;;;;;15.50;7.60;;;;;;;-3.19;100.00;101109.43;110389;1235;71864;-76
2023/12/10 06:12:33;;;;;;;15.10;7.10;;;;;;;-3.25;100.00;101109.81;110436;1235;61116;-78
2023/12/10 06:15:03;;;;;;;11.00;6.00;;;;;;;-3.39;100.00;101111.14;110491;1234;60377;-77
2023/12/10 06:17:32;;;;;;;15.30;7.50;;;;;;;-3.33;100.00;101114.31;110481;1233;74811;-76
2023/12/10 06:20:01;;;;;;;15.80;6.90;;;;;;;-3.22;100.00;101123.26;110507;1234;72342;-76
2023/12/10 06:22:30;;;;;;;14.30;6.50;;;;;;;-3.28;100.00;101121.78;110451;1234;69084;-77
2023/12/10 06:25:03;;;;;;;14.10;6.70;;;;;;;-3.23;100.00;101121.39;110365;1234;73748;-77
2023/12/10 06:27:32;;;;;;;13.90;7.00;;;;;;;-3.28;100.00;101120.08;110450;1235;60012;-76
2023/12/10 06:30:01;;;;;;;17.60;7.10;;;;;;;-3.30;100.00;101124.02;110037;1234;560846;-76
2023/12/10 06:32:32;;;;;;;14.10;8.80;;;;;;;-3.36;100.00;101119.12;110472;1234;74768;-76
2023/12/10 06:35:08;;;;;;;14.20;7.70;;;;;;;-3.43;100.00;101116.45;110242;1233;71361;-76
2023/12/10 06:37:45;;;;;;;15.60;7.90;;;;;;;-3.50;100.00;101110.55;110117;1233;71624;-77
2023/12/10 06:40:14;;;;;;;16.00;7.60;;;;;;;-3.48;100.00;101110.70;110444;1234;70987;-77
2023/12/10 06:42:50;;;;;;;14.90;7.50;;;;;;;-3.38;100.00;101115.73;110476;1234;62237;-78
2023/12/10 06:45:20;;;;;;;15.80;7.20;;;;;;;-3.34;100.00;101111.61;110243;1234;61146;-75
2023/12/10 06:47:52;;;;;;;16.60;8.10;;;;;;;-3.19;100.00;101110.45;110268;1233;73178;-76
2023/12/10 06:50:23;;;;;;;17.10;7.20;;;;;;;-3.15;100.00;101112.28;110487;1234;70266;-77
2023/12/10 06:53:01;;;;;;;19.80;8.30;;;;;;;-3.15;100.00;101113.98;110479;1233;68596;-76
2023/12/10 06:55:42;;;;;;;16.10;8.10;;;;;;;-3.07;100.00;101110.67;110442;1234;71820;-77
2023/12/10 06:58:12;;;;;;;16.90;8.50;;;;;;;-3.13;100.00;101112.61;110457;1236;60374;-76
2023/12/10 07:00:48;;;;;;;18.10;8.60;;;;;;;-3.25;100.00;101111.02;110506;1234;59059;-76
2023/12/10 07:03:17;;;;;;;16.80;8.10;;;;;;;-3.24;100.00;101113.39;110409;1234;72360;-77
2023/12/10 07:05:46;;;;;;;18.10;8.10;;;;;;;-3.00;100.00;101123.05;110527;1234;70768;-77
2023/12/10 07:08:18;;;;;;;16.70;8.40;;;;;;;-2.92;100.00;101132.68;110505;1234;67605;-77
2023/12/10 07:10:47;;;;;;;19.30;8.50;;;;;;;-2.97;100.00;101136.13;110382;1234;72692;-77
2023/12/10 07:13:49;;;;;;;15.30;7.70;;;;;;;-2.86;100.00;101134.67;110503;1235;60080;-76
2023/12/10 07:16:17;;;;;;;14.50;8.00;;;;;;;-2.70;100.00;101129.89;110363;1233;60661;-76
2023/12/10 07:18:52;;;;;;;17.20;8.10;;;;;;;-2.63;100.00;101127.93;110498;1233;72795;-77
2023/12/10 07:21:24;;;;;;;16.70;8.80;;;;;;;-2.67;100.00;101127.63;110259;1234;71379;-77
2023/12/10 07:23:54;;;;;;;19.30;8.80;;;;;;;-2.69;100.00;101124.42;110509;1233;69618;-77
2023/12/10 07:26:25;;;;;;;16.60;8.40;;;;;;;-2.72;100.00;101123.44;110468;1234;73030;-77
2023/12/10 07:28:53;;;;;;;14.00;6.80;;;;;;;-2.72;100.00;101129.90;110393;1237;61820;-76
2023/12/10 07:31:22;;;;;;;16.90;7.60;;;;;;;-2.64;100.00;101131.88;110507;1234;59900;-76
2023/12/10 07:33:54;;;;;;;15.00;7.60;;;;;;;-2.60;100.00;101129.10;110408;1234;72266;-77
2023/12/10 07:36:28;;;;;;;16.50;8.50;;;;;;;-2.58;100.00;101130.78;110249;1234;71118;-77
2023/12/10 07:38:56;;;;;;;15.00;8.00;;;;;;;-2.49;100.00;101129.64;110440;1234;70812;-77
2023/12/10 07:41:25;;;;;;;15.30;7.70;;;;;;;-2.45;100.00;101129.59;110215;1234;72560;-77
2023/12/10 07:43:54;;;;;;;14.80;7.40;;;;;;;-2.43;100.00;101129.91;110369;1235;60242;-76
2023/12/10 07:46:23;;;;;;;14.60;6.90;;;;;;;-2.26;100.00;101132.77;110291;1234;59576;-76
2023/12/10 07:48:52;;;;;;;12.20;5.90;;;;;;;-2.19;100.00;101127.74;110415;1234;72672;-77
2023/12/10 07:51:21;;;;;;;15.60;7.50;;;;;;;-2.17;100.00;101129.41;110380;1234;70230;-75
2023/12/10 07:53:50;;;;;;;21.30;9.20;;;;;;;-2.33;100.00;101129.95;110401;1234;68475;-75
2023/12/10 07:56:18;;;;;;;18.50;7.80;;;;;;;-2.42;100.00;101129.39;110426;1233;74115;-77
2023/12/10 07:58:47;;;;;;;13.10;6.70;;;;;;;-2.68;100.00;101131.74;110422;1235;60034;-77
2023/12/10 08:01:16;;;;;;;14.50;7.20;;;;;;;-2.60;100.00;101133.52;110483;1233;58564;-76
2023/12/10 08:03:45;;;;;;;17.00;7.70;;;;;;;-2.69;100.00;101134.82;110426;1233;71912;-78
2023/12/10 08:06:14;;;;;;;14.70;7.60;;;;;;;-2.92;100.00;101135.57;110447;1234;71434;-78
2023/12/10 08:08:43;;;;;;;16.40;7.60;;;;;;;-2.83;100.00;101146.40;110333;1234;69989;-77
2023/12/10 08:11:13;;;;;;;18.30;7.50;;;;;;;-2.81;100.00;101147.39;110321;1235;72347;-77
2023/12/10 08:13:41;;;;;;;18.10;8.10;;;;;;;-2.69;100.00;101153.75;110389;1235;62079;-77
2023/12/10 08:16:10;;;;;;;12.40;6.20;;;;;;;-2.76;100.00;101148.70;110248;1233;61803;-77
2023/12/10 08:18:39;;;;;;;11.90;6.10;;;;;;;-2.68;100.00;101152.37;110369;1233;74110;-76
2023/12/10 08:21:08;;;;;;;15.50;7.10;;;;;;;-2.68;100.00;101155.95;110425;1234;72249;-76
2023/12/10 08:23:38;;;;;;;15.20;7.20;;;;;;;-2.52;100.00;101152.38;110193;1233;68293;-77
2023/12/10 08:26:07;;;;;;;15.50;7.10;;;;;;;-2.61;100.00;101152.13;110398;1234;71800;-76
2023/12/10 08:28:37;;;;;;;15.70;7.40;;;;;;;-2.56;100.00;101149.50;110390;1235;60484;-77
2023/12/10 08:31:06;;;;;;;14.60;6.90;;;;;;;-2.48;100.00;101145.31;110272;1234;61091;-76
2023/12/10 08:33:35;;;;;;;18.80;8.50;;;;;;;-2.57;100.00;101143.21;110092;1234;72769;-77
2023/12/10 08:36:04;;;;;;;16.90;8.20;;;;;;;-2.52;100.00;101137.70;110297;1234;70155;-76
2023/12/10 08:38:33;;;;;;;12.40;6.40;;;;;;;-2.47;100.00;101128.60;110329;1233;70417;-76
2023/12/10 08:41:02;;;;;;;14.60;7.00;;;;;;;-2.32;100.00;101131.33;110258;1233;72302;-76
2023/12/10 08:43:32;;;;;;;13.80;7.60;;;;;;;-2.35;100.00;101113.79;110260;1233;58861;-77
2023/12/10 08:46:02;;;;;;;13.30;6.50;;;;;;;-2.21;100.00;101132.02;110234;1235;59642;-77
2023/12/10 08:48:31;;;;;;;15.50;7.80;;;;;;;-2.01;100.00;101135.51;110129;1234;73308;-77
2023/12/10 08:51:00;;;;;;;14.40;7.00;;;;;;;-2.13;100.00;101136.02;110167;1233;72802;-77
2023/12/10 08:53:28;;;;;;;16.60;8.70;;;;;;;-2.23;100.00;101127.61;110207;1234;71881;-78
2023/12/10 08:55:57;;;;;;;15.10;7.80;;;;;;;-2.21;100.00;101133.39;110150;1234;73913;-77
2023/12/10 08:58:29;;;;;;;15.10;7.80;;;;;;;-2.39;100.00;101126.96;110042;1238;60799;-77
2023/12/10 09:00:58;;;;;;;19.50;8.80;;;;;;;-2.39;100.00;101126.79;110176;1235;59197;-77
2023/12/10 09:03:27;;;;;;;16.40;8.00;;;;;;;-2.47;100.00;101121.95;110193;1234;73330;-77
2023/12/10 09:05:58;;;;;;;23.10;9.70;;;;;;;-2.29;100.00;101113.70;110179;1234;72127;-77
2023/12/10 09:08:26;;;;;;;18.80;9.20;;;;;;;-2.16;100.00;101107.20;110234;1234;70994;-85
2023/12/10 09:10:55;;;;;;;18.50;8.60;;;;;;;-2.03;100.00;101095.94;110367;1233;71345;-72
2023/12/10 09:13:24;;;;;;;21.40;8.80;;;;;;;-1.91;100.00;101098.51;110380;1235;59402;-82
2023/12/10 09:15:55;;;;;;;23.50;9.20;;;;;;;-1.79;100.00;101093.02;110238;1236;59708;-78
2023/12/10 09:18:27;;;;;;;19.60;9.40;;;;;;;-1.95;100.00;101087.13;110401;1235;72389;-78
2023/12/10 09:20:56;;;;;;;16.90;9.20;;;;;;;-2.04;100.00;101083.34;110378;1234;71413;-79
2023/12/10 09:23:26;;;;;;;17.80;8.90;;;;;;;-2.22;100.00;101083.24;110380;1234;70834;-80
2023/12/10 09:25:54;;;;;;;21.60;9.50;;;;;;;-2.04;100.00;101082.80;110319;1234;72675;-79
2023/12/10 09:28:23;;;;;;;19.80;9.40;;;;;;;-1.88;100.00;101085.48;110360;1234;59322;-79
2023/12/10 09:30:52;;;;;;;18.60;8.80;;;;;;;-1.87;100.00;101095.02;110273;1235;59588;-79
2023/12/10 09:33:21;;;;;;;20.80;9.10;;;;;;;-1.76;100.00;101095.70;110292;1234;72387;-78
2023/12/10 09:35:50;;;;;;;20.70;10.20;;;;;;;-1.71;100.00;101093.05;110310;1233;70230;-78
2023/12/10 09:38:19;;;;;;;15.60;7.20;;;;;;;-1.94;100.00;101096.67;110284;1234;68567;-78
2023/12/10 09:40:48;;;;;;;19.90;9.50;;;;;;;-1.97;100.00;101095.52;110249;1235;71039;-78
2023/12/10 09:43:17;;;;;;;18.00;8.60;;;;;;;-2.14;100.00;101092.01;110319;1235;58500;-79
2023/12/10 09:45:46;;;;;;;15.40;8.70;;;;;;;-2.30;100.00;101084.21;110454;1234;59152;-79
2023/12/10 09:48:18;;;;;;;20.50;9.40;;;;;;;-2.28;100.00;101089.30;110353;1234;74684;-78
2023/12/10 09:50:47;;;;;;;21.20;10.40;;;;;;;-2.13;100.00;101083.96;110312;1235;70573;-78
2023/12/10 09:53:16;;;;;;;16.40;9.30;;;;;;;-1.99;100.00;101076.77;110380;1235;67617;-78
2023/12/10 09:55:45;;;;;;;13.80;7.10;;;;;;;-2.09;100.00;101072.48;110350;1234;72172;-80
2023/12/10 09:58:14;;;;;;;16.20;9.40;;;;;;;-2.03;100.00;101074.26;110345;1235;61390;-79
2023/12/10 10:00:46;;;;;;;21.50;9.50;;;;;;;-1.99;100.00;101081.89;110232;1234;60133;-79
2023/12/10 10:03:15;;;;;;;16.30;9.00;;;;;;;-1.84;100.00;101083.86;110155;1234;72824;-79
2023/12/10 10:05:44;;;;;;;18.00;8.70;;;;;;;-1.91;100.00;101080.39;110368;1234;72059;-79
2023/12/10 10:08:14;;;;;;;20.80;9.90;;;;;;;-2.03;100.00;101078.35;110249;1233;70886;-79
2023/12/10 10:10:43;;;;;;;9.70;5.30;;;;;;;-2.30;100.00;101081.47;110332;1233;73005;-82
2023/12/10 10:13:12;;;;;;;15.70;6.50;;;;;;;-2.02;100.00;101080.39;110407;1234;61020;-77
2023/12/10 10:15:41;;;;;;;19.60;9.10;;;;;;;-1.97;100.00;101075.19;110307;1234;58831;-77
2023/12/10 10:18:10;;;;;;;19.60;9.30;;;;;;;-2.02;100.00;101070.16;110381;1234;72361;-77
2023/12/10 10:20:41;;;;;;;18.20;9.20;;;;;;;-2.09;100.00;101072.98;110235;1234;72137;-80
2023/12/10 10:23:10;;;;;;;21.60;10.80;;;;;;;-2.10;100.00;101068.38;110260;1234;69469;-72
2023/12/10 10:25:40;;;;;;;18.30;9.20;;;;;;;-2.07;100.00;101069.55;110221;1234;73401;-72
2023/12/10 10:28:13;;;;;;;22.00;9.10;;;;;;;-2.08;100.00;101069.23;110074;1234;61792;-73
2023/12/10 10:30:43;;;;;;;23.80;10.40;;;;;;;-2.00;100.00;101067.22;110218;1235;59962;-73
2023/12/10 10:33:13;;;;;;;19.70;9.60;;;;;;;-1.98;100.00;101065.32;110114;1234;73390;-71
2023/12/10 10:35:42;;;;;;;20.90;10.60;;;;;;;-2.03;100.00;101060.77;110110;1237;69881;-69
2023/12/10 10:38:11;;;;;;;19.60;9.70;;;;;;;-2.13;100.00;101055.64;110235;1238;68613;-70
2023/12/10 10:40:44;;;;;;;24.80;10.50;;;;;;;-1.98;100.00;101051.84;110282;1235;70974;-72
2023/12/10 10:43:14;;;;;;;17.80;8.70;;;;;;;-2.02;100.00;101048.80;110184;1237;60277;-72
2023/12/10 10:45:43;;;;;;;19.60;9.70;;;;;;;-1.83;100.00;101049.89;110003;1234;60146;-73
2023/12/10 10:48:12;;;;;;;18.50;8.60;;;;;;;-1.83;100.00;101048.86;110334;1234;72495;-74
2023/12/10 10:50:43;;;;;;;20.10;9.60;;;;;;;-1.66;100.00;101048.25;110325;1238;70803;-73
2023/12/10 10:53:13;;;;;;;18.40;9.00;;;;;;;-1.87;100.00;101051.16;110314;1234;69115;-73
2023/12/10 10:55:46;;;;;;;16.50;7.60;;;;;;;-1.74;100.00;101051.45;110206;1233;74230;-78
2023/12/10 10:58:27;;;;;;;14.80;6.20;;;;;;;-1.61;100.00;101051.23;110277;1235;60912;-72
2023/12/10 11:00:58;;;;;;;23.00;11.40;;;;;;;-1.58;100.00;101050.34;110301;1233;60174;-71
2023/12/10 11:03:28;;;;;;;17.70;8.70;;;;;;;-1.56;100.00;101047.73;110189;1234;75136;-71
2023/12/10 11:06:11;;;;;;;20.90;11.30;;;;;;;-1.50;100.00;101042.69;110050;1234;71646;-73
2023/12/10 11:08:57;;;;;;;21.10;9.00;;;;;;;-1.55;100.00;101041.75;110193;1237;68316;-79
2023/12/10 11:13:54;;;;;;;19.10;8.50;;;;;;;-1.49;100.00;101036.51;104369;1284;600458;-76